createdAt,value
2019-02-19T00:00:13.296Z,81.40
2019-02-19T00:01:17.976Z,80.28
2019-02-19T00:02:31.370Z,81.02
2019-02-19T00:03:40.127Z,82.25
2019-02-19T00:04:44.215Z,73.70
2019-02-19T00:05:50.062Z,78.65
2019-02-19T00:06:58.463Z,80.12
2019-02-19T00:08:05.727Z,77.35
2019-02-19T00:09:16.623Z,78.92
2019-02-19T00:10:22.343Z,80.92
2019-02-19T00:11:26.415Z,77.27
2019-02-19T00:12:38.605Z,81.20
2019-02-19T00:13:43.509Z,81.05
2019-02-19T00:14:50.369Z,82.80
2019-02-19T00:15:58.075Z,82.42
2019-02-19T00:17:01.804Z,81.42
2019-02-19T00:18:06.998Z,82.70
2019-02-19T00:19:13.794Z,80.97
2019-02-19T00:20:18.256Z,84.72
2019-02-19T00:21:22.265Z,83.07
2019-02-19T00:22:27.030Z,82.40
2019-02-19T00:23:37.331Z,82.00
2019-02-19T00:24:38.217Z,78.90
2019-02-19T00:25:47.252Z,81.08
2019-02-19T00:26:51.466Z,78.67
2019-02-19T00:27:58.989Z,79.27
2019-02-19T00:29:07.422Z,84.70
2019-02-19T00:30:12.620Z,81.42
2019-02-19T00:31:21.517Z,81.87
2019-02-19T00:32:25.851Z,81.10
2019-02-19T00:33:30.972Z,80.75
2019-02-19T00:34:34.982Z,81.55
2019-02-19T00:35:40.995Z,84.28
2019-02-19T00:36:45.287Z,78.30
2019-02-19T00:37:50.090Z,78.07
2019-02-19T00:38:54.056Z,77.65
2019-02-19T00:39:59.624Z,80.90
2019-02-19T00:41:05.203Z,79.37
2019-02-19T00:42:15.149Z,77.37
2019-02-19T00:43:26.782Z,80.75
2019-02-19T00:44:32.946Z,71.87
2019-02-19T00:45:39.841Z,82.10
2019-02-19T00:46:46.888Z,78.83
2019-02-19T00:48:01.515Z,79.40
2019-02-19T00:49:09.141Z,78.80
2019-02-19T00:50:22.507Z,75.90
2019-02-19T00:51:32.985Z,77.45
2019-02-19T00:52:43.021Z,77.92
2019-02-19T00:53:59.061Z,78.80
2019-02-19T00:55:02.927Z,76.70
2019-02-19T00:56:07.121Z,79.80
2019-02-19T00:57:12.003Z,83.45
2019-02-19T00:58:16.229Z,79.30
2019-02-19T00:59:28.110Z,80.47
2019-02-19T01:00:35.404Z,79.35
2019-02-19T01:03:13.159Z,78.62
2019-02-19T01:04:18.897Z,80.95
2019-02-19T01:05:32.361Z,81.72
2019-02-19T01:06:39.697Z,76.62
2019-02-19T01:07:49.183Z,80.87
2019-02-19T01:08:52.295Z,79.58
2019-02-19T01:09:57.327Z,83.07
2019-02-19T01:11:02.010Z,82.53
2019-02-19T01:12:06.109Z,80.35
2019-02-19T01:13:10.936Z,82.37
2019-02-19T01:14:15.103Z,82.60
2019-02-19T01:15:25.511Z,80.30
2019-02-19T01:16:29.688Z,85.32
2019-02-19T01:17:44.603Z,78.28
2019-02-19T01:18:45.049Z,78.97
2019-02-19T01:19:52.271Z,79.62
2019-02-19T01:20:56.807Z,78.52
2019-02-19T01:22:00.950Z,77.92
2019-02-19T01:23:04.901Z,78.52
2019-02-19T01:24:09.013Z,80.83
2019-02-19T01:25:12.990Z,76.97
2019-02-19T01:26:16.899Z,82.50
2019-02-19T01:27:20.991Z,82.08
2019-02-19T01:28:24.959Z,83.07
2019-02-19T01:29:28.984Z,83.80
2019-02-19T01:30:32.934Z,85.40
2019-02-19T01:31:37.003Z,83.20
2019-02-19T01:32:42.631Z,83.80
2019-02-19T01:33:47.013Z,86.12
2019-02-19T01:34:54.679Z,84.22
2019-02-19T01:36:00.691Z,82.60
2019-02-19T01:37:06.318Z,81.53
2019-02-19T01:38:16.733Z,84.52
2019-02-19T01:39:21.694Z,81.60
2019-02-19T01:40:26.519Z,81.47
2019-02-19T01:41:32.368Z,83.58
2019-02-19T01:42:47.331Z,81.80
2019-02-19T01:43:45.113Z,84.72
2019-02-19T01:44:49.504Z,87.00
2019-02-19T01:45:55.509Z,83.75
2019-02-19T01:46:59.535Z,83.67
2019-02-19T01:48:05.054Z,84.92
2019-02-19T01:49:09.854Z,82.10
2019-02-19T01:50:13.840Z,80.32
2019-02-19T01:51:19.167Z,78.20
2019-02-19T01:52:23.085Z,82.92
2019-02-19T01:53:27.057Z,83.82
2019-02-19T01:54:31.037Z,82.72
2019-02-19T01:55:34.968Z,80.12
2019-02-19T01:56:38.959Z,82.55
2019-02-19T01:57:43.098Z,82.35
2019-02-19T01:58:47.148Z,85.47
2019-02-19T01:59:51.229Z,82.30
2019-02-19T02:00:55.195Z,80.25
2019-02-19T02:01:59.627Z,82.88
2019-02-19T02:03:03.667Z,81.42
2019-02-19T02:04:09.349Z,85.15
2019-02-19T02:05:16.147Z,83.50
2019-02-19T02:06:22.983Z,80.30
2019-02-19T02:07:28.719Z,85.07
2019-02-19T02:08:34.633Z,83.27
2019-02-19T02:09:40.822Z,81.75
2019-02-19T02:10:50.113Z,84.20
2019-02-19T02:11:55.513Z,81.80
2019-02-19T02:12:59.512Z,81.00
2019-02-19T02:14:03.574Z,80.57
2019-02-19T02:15:08.209Z,86.32
2019-02-19T02:16:12.291Z,84.10
2019-02-19T02:17:16.515Z,85.05
2019-02-19T02:18:20.588Z,85.42
2019-02-19T02:19:25.317Z,83.27
2019-02-19T02:20:31.537Z,83.50
2019-02-19T02:21:35.560Z,84.47
2019-02-19T02:22:39.645Z,81.20
2019-02-19T02:23:45.302Z,82.97
2019-02-19T02:24:54.216Z,81.87
2019-02-19T02:25:58.761Z,81.63
2019-02-19T02:27:02.785Z,83.42
2019-02-19T02:28:08.948Z,82.92
2019-02-19T02:29:13.168Z,82.95
2019-02-19T02:30:17.312Z,80.50
2019-02-19T02:31:21.302Z,83.25
2019-02-19T02:32:25.320Z,84.70
2019-02-19T02:33:31.061Z,83.00
2019-02-19T02:34:35.278Z,80.45
2019-02-19T02:35:39.355Z,83.82
2019-02-19T02:36:44.501Z,78.70
2019-02-19T02:37:48.703Z,80.05
2019-02-19T02:38:52.813Z,81.70
2019-02-19T02:39:58.013Z,74.95
2019-02-19T02:41:03.887Z,78.22
2019-02-19T02:42:07.917Z,81.00
2019-02-19T02:43:12.604Z,81.32
2019-02-19T02:44:24.445Z,77.72
2019-02-19T02:45:28.648Z,80.85
2019-02-19T02:46:32.752Z,83.58
2019-02-19T02:47:36.928Z,81.47
2019-02-19T02:48:40.984Z,81.57
2019-02-19T02:49:47.954Z,82.67
2019-02-19T02:50:52.168Z,81.28
2019-02-19T02:51:58.518Z,86.15
2019-02-19T02:53:05.194Z,83.10
2019-02-19T02:54:09.177Z,82.78
2019-02-19T02:55:13.161Z,83.85
2019-02-19T02:56:17.389Z,81.55
2019-02-19T02:57:26.609Z,80.62
2019-02-19T02:58:30.590Z,82.15
2019-02-19T02:59:37.249Z,82.95
2019-02-19T03:00:41.997Z,82.97
2019-02-19T03:01:45.974Z,79.37
2019-02-19T03:02:50.044Z,83.90
2019-02-19T03:03:53.997Z,81.53
2019-02-19T03:04:58.063Z,84.72
2019-02-19T03:06:22.758Z,81.37
2019-02-19T03:07:37.060Z,78.42
2019-02-19T03:08:41.247Z,80.72
2019-02-19T03:09:48.491Z,85.17
2019-02-19T03:10:52.475Z,85.12
2019-02-19T03:11:56.808Z,85.10
2019-02-19T03:13:00.936Z,83.35
2019-02-19T03:14:05.095Z,84.20
2019-02-19T03:15:11.145Z,88.67
2019-02-19T03:16:15.696Z,84.90
2019-02-19T03:17:19.800Z,88.05
2019-02-19T03:18:23.857Z,84.72
2019-02-19T03:19:27.963Z,86.67
2019-02-19T03:20:32.059Z,86.20
2019-02-19T03:21:36.061Z,85.95
2019-02-19T03:22:40.149Z,87.40
2019-02-19T03:23:45.703Z,84.83
2019-02-19T03:24:50.037Z,85.57
2019-02-19T03:25:53.930Z,84.70
2019-02-19T03:26:58.011Z,83.70
2019-02-19T03:28:04.757Z,80.87
2019-02-19T03:29:08.863Z,83.42
2019-02-19T03:30:13.985Z,87.62
2019-02-19T03:31:18.215Z,89.58
2019-02-19T03:32:24.418Z,87.92
2019-02-19T03:33:28.997Z,85.70
2019-02-19T03:34:33.009Z,86.42
2019-02-19T03:35:36.982Z,87.57
2019-02-19T03:36:40.988Z,84.32
2019-02-19T03:37:48.353Z,80.30
2019-02-19T03:38:52.365Z,82.17
2019-02-19T03:39:56.384Z,82.22
2019-02-19T03:41:00.512Z,81.17
2019-02-19T03:42:04.562Z,83.07
2019-02-19T03:43:09.812Z,81.05
2019-02-19T03:44:13.853Z,87.47
2019-02-19T03:45:17.996Z,84.80
2019-02-19T03:46:24.171Z,86.90
2019-02-19T03:47:29.784Z,84.85
2019-02-19T03:48:33.671Z,82.22
2019-02-19T03:49:42.157Z,84.58
2019-02-19T03:50:45.930Z,83.33
2019-02-19T03:51:51.090Z,85.35
2019-02-19T03:52:56.874Z,83.45
2019-02-19T03:54:03.665Z,81.53
2019-02-19T03:55:07.747Z,83.12
2019-02-19T03:56:13.180Z,84.80
2019-02-19T03:57:18.757Z,83.62
2019-02-19T03:58:22.799Z,84.67
2019-02-19T03:59:26.797Z,89.28
2019-02-19T04:00:31.979Z,85.40
2019-02-19T04:01:37.362Z,84.17
2019-02-19T04:02:41.397Z,82.78
2019-02-19T04:03:50.072Z,82.65
2019-02-19T04:04:53.954Z,79.90
2019-02-19T04:05:57.883Z,82.65
2019-02-19T04:07:02.092Z,81.67
2019-02-19T04:08:06.072Z,82.65
2019-02-19T04:09:10.683Z,81.75
2019-02-19T04:10:15.262Z,84.17
2019-02-19T04:11:19.389Z,81.35
2019-02-19T04:12:24.522Z,83.52
2019-02-19T04:13:29.756Z,83.10
2019-02-19T04:14:34.890Z,83.65
2019-02-19T04:15:40.518Z,84.75
2019-02-19T04:16:44.517Z,78.90
2019-02-19T04:17:48.612Z,84.83
2019-02-19T04:18:52.624Z,83.60
2019-02-19T04:19:56.580Z,76.30
2019-02-19T04:21:00.860Z,83.55
2019-02-19T04:22:07.402Z,85.85
2019-02-19T04:23:11.390Z,84.15
2019-02-19T04:24:15.360Z,81.67
2019-02-19T04:25:20.924Z,82.55
2019-02-19T04:26:26.075Z,87.22
2019-02-19T04:27:30.054Z,88.03
2019-02-19T04:28:35.726Z,89.07
2019-02-19T04:29:41.436Z,84.67
2019-02-19T04:30:46.638Z,83.95
2019-02-19T04:31:52.332Z,83.70
2019-02-19T04:32:56.407Z,86.60
2019-02-19T04:34:00.375Z,84.87
2019-02-19T04:35:05.894Z,83.72
2019-02-19T04:36:11.281Z,83.55
2019-02-19T04:37:15.374Z,94.70
2019-02-19T04:38:22.215Z,87.55
2019-02-19T04:39:27.642Z,86.95
2019-02-19T04:40:31.718Z,87.33
2019-02-19T04:41:37.016Z,87.33
2019-02-19T04:42:46.277Z,81.80
2019-02-19T04:43:52.181Z,90.47
2019-02-19T04:45:00.696Z,86.22
2019-02-19T04:46:04.916Z,86.20
2019-02-19T04:47:10.738Z,92.02
2019-02-19T04:48:16.255Z,100.38
2019-02-19T04:49:20.339Z,89.40
2019-02-19T04:50:24.312Z,90.92
2019-02-19T04:51:28.955Z,87.47
2019-02-19T04:52:35.312Z,83.55
2019-02-19T04:53:40.985Z,90.32
2019-02-19T04:54:48.581Z,91.92
2019-02-19T04:55:54.438Z,87.20
2019-02-19T04:56:58.498Z,83.22
2019-02-19T04:58:04.280Z,97.72
2019-02-19T04:59:09.574Z,91.28
2019-02-19T05:00:14.139Z,85.90
2019-02-19T05:01:19.325Z,92.15
2019-02-19T05:02:24.992Z,93.80
2019-02-19T05:03:30.714Z,91.78
2019-02-19T05:04:37.112Z,94.32
2019-02-19T05:05:41.706Z,92.97
2019-02-19T05:06:46.327Z,95.25
2019-02-19T05:07:50.265Z,94.00
2019-02-19T05:08:58.412Z,99.65
2019-02-19T05:10:04.363Z,92.53
2019-02-19T05:11:09.797Z,92.20
2019-02-19T05:12:13.791Z,94.55
2019-02-19T05:13:17.782Z,96.53
2019-02-19T05:14:22.410Z,90.83
2019-02-19T05:15:26.455Z,90.83
2019-02-19T05:16:40.473Z,87.17
2019-02-19T05:17:37.933Z,83.87
2019-02-19T05:18:41.907Z,85.92
2019-02-19T05:19:47.611Z,91.12
2019-02-19T05:20:51.713Z,97.53
2019-02-19T05:21:55.634Z,95.60
2019-02-19T05:23:02.648Z,99.37
2019-02-19T05:24:06.827Z,98.00
2019-02-19T05:25:11.073Z,90.90
2019-02-19T05:26:15.105Z,90.03
2019-02-19T05:27:20.306Z,98.27
2019-02-19T05:28:24.478Z,100.00
2019-02-19T05:29:28.753Z,94.42
2019-02-19T05:30:35.184Z,96.45
2019-02-19T05:31:40.062Z,87.37
2019-02-19T05:32:44.786Z,94.07
2019-02-19T05:33:48.801Z,94.92
2019-02-19T05:34:53.966Z,99.03
2019-02-19T05:35:58.007Z,97.47
2019-02-19T05:37:03.233Z,92.25
2019-02-19T05:38:07.650Z,83.60
2019-02-19T05:39:12.308Z,100.92
2019-02-19T05:40:16.231Z,95.62
2019-02-19T05:41:25.324Z,94.60
2019-02-19T05:42:25.786Z,90.50
2019-02-19T05:43:29.787Z,93.95
2019-02-19T05:44:33.847Z,89.28
2019-02-19T05:45:38.561Z,90.60
2019-02-19T05:46:49.575Z,97.37
2019-02-19T05:47:48.131Z,96.12
2019-02-19T05:48:53.178Z,93.30
2019-02-19T05:49:57.090Z,97.30
2019-02-19T05:51:01.246Z,92.72
2019-02-19T05:52:05.233Z,89.25
2019-02-19T05:53:09.268Z,96.80
2019-02-19T05:54:13.196Z,96.30
2019-02-19T05:55:17.266Z,95.90
2019-02-19T05:56:21.202Z,95.17
2019-02-19T05:57:25.181Z,98.42
2019-02-19T05:58:30.933Z,95.25
2019-02-19T05:59:34.802Z,87.00
2019-02-19T06:00:40.345Z,96.02
2019-02-19T06:01:46.529Z,96.78
2019-02-19T06:02:50.494Z,88.07
2019-02-19T06:03:55.992Z,97.72
2019-02-19T06:04:59.972Z,98.03
2019-02-19T06:06:05.379Z,97.35
2019-02-19T06:07:09.938Z,95.30
2019-02-19T06:08:18.938Z,96.67
2019-02-19T06:09:22.904Z,92.50
2019-02-19T06:10:28.657Z,87.22
2019-02-19T06:11:34.210Z,86.30
2019-02-19T06:12:38.295Z,89.35
2019-02-19T06:13:43.911Z,93.78
2019-02-19T06:14:47.959Z,94.55
2019-02-19T06:15:54.624Z,82.62
2019-02-19T06:16:58.984Z,81.63
2019-02-19T06:18:06.101Z,83.37
2019-02-19T06:19:10.053Z,83.03
2019-02-19T06:20:16.415Z,89.13
2019-02-19T06:21:20.356Z,83.92
2019-02-19T06:22:25.907Z,88.95
2019-02-19T06:23:29.894Z,95.87
2019-02-19T06:24:36.144Z,93.58
2019-02-19T06:25:41.759Z,94.80
2019-02-19T06:26:45.809Z,89.28
2019-02-19T06:27:49.822Z,96.05
2019-02-19T06:28:53.889Z,91.08
2019-02-19T06:29:58.460Z,93.00
2019-02-19T06:31:04.666Z,94.03
2019-02-19T06:32:09.061Z,89.10
2019-02-19T06:33:13.038Z,88.33
2019-02-19T06:34:20.714Z,91.22
2019-02-19T06:35:24.629Z,78.50
2019-02-19T06:36:28.608Z,93.12
2019-02-19T06:37:32.547Z,96.20
2019-02-19T06:38:38.529Z,93.67
2019-02-19T06:39:42.728Z,88.97
2019-02-19T06:40:46.759Z,81.95
2019-02-19T06:41:50.779Z,91.75
2019-02-19T06:42:55.406Z,90.05
2019-02-19T06:43:59.412Z,88.40
2019-02-19T06:45:08.574Z,88.47
2019-02-19T06:46:12.580Z,91.80
2019-02-19T06:47:19.877Z,82.47
2019-02-19T06:48:25.293Z,91.63
2019-02-19T06:49:41.946Z,91.22
2019-02-19T06:50:48.538Z,83.52
2019-02-19T06:51:56.067Z,78.90
2019-02-19T06:53:04.672Z,78.78
2019-02-19T06:54:19.701Z,80.15
2019-02-19T06:55:45.919Z,88.50
2019-02-19T06:56:55.489Z,75.90
2019-02-19T06:58:04.765Z,78.55
2019-02-19T06:59:11.026Z,78.50
2019-02-19T07:00:15.424Z,84.03
2019-02-19T07:01:22.960Z,76.95
2019-02-19T07:02:47.392Z,74.90
2019-02-19T07:03:56.105Z,76.17
2019-02-19T07:05:00.762Z,75.45
2019-02-19T07:06:08.811Z,75.83
2019-02-19T07:07:14.380Z,87.25
2019-02-19T07:08:20.419Z,80.10
2019-02-19T07:09:25.705Z,76.87
2019-02-19T07:10:30.442Z,79.37
2019-02-19T07:11:34.407Z,72.78
2019-02-19T07:12:40.261Z,77.80
2019-02-19T07:13:47.057Z,78.87
2019-02-19T07:14:52.764Z,75.52
2019-02-19T07:15:56.875Z,77.90
2019-02-19T07:17:01.008Z,76.00
2019-02-19T07:18:05.064Z,76.82
2019-02-19T07:19:09.144Z,76.87
2019-02-19T07:20:18.657Z,73.80
2019-02-19T07:21:25.671Z,71.02
2019-02-19T07:22:29.677Z,74.25
2019-02-19T07:23:35.283Z,75.52
2019-02-19T07:24:39.575Z,74.15
2019-02-19T07:25:45.466Z,69.03
2019-02-19T07:26:49.575Z,74.70
2019-02-19T07:27:53.543Z,74.72
2019-02-19T07:28:58.653Z,76.05
2019-02-19T07:30:07.264Z,73.00
2019-02-19T07:31:14.508Z,73.78
2019-02-19T07:32:19.736Z,70.28
2019-02-19T07:33:34.736Z,70.90
2019-02-19T07:34:41.031Z,68.20
2019-02-19T07:35:45.204Z,75.87
2019-02-19T07:36:53.649Z,71.57
2019-02-19T07:37:58.569Z,70.92
2019-02-19T07:39:13.058Z,68.92
2019-02-19T07:41:58.908Z,66.33
2019-02-19T07:43:02.945Z,63.98
2019-02-19T07:44:07.422Z,77.40
2019-02-19T07:45:13.280Z,73.42
2019-02-19T07:46:17.485Z,67.50
2019-02-19T07:47:24.617Z,71.35
2019-02-19T07:48:27.930Z,66.82
2019-02-19T07:49:32.937Z,66.35
2019-02-19T07:50:40.193Z,67.15
2019-02-19T07:51:48.119Z,66.22
2019-02-19T07:52:55.810Z,70.00
2019-02-19T07:53:59.810Z,72.47
2019-02-19T07:55:04.594Z,73.72
2019-02-19T07:56:09.920Z,71.65
2019-02-19T07:57:15.498Z,72.00
2019-02-19T07:58:22.054Z,69.87
2019-02-19T07:59:27.694Z,70.32
2019-02-19T08:00:33.341Z,66.77
2019-02-19T08:01:37.950Z,66.85
2019-02-19T08:02:41.968Z,69.53
2019-02-19T08:03:48.325Z,64.72
2019-02-19T08:04:52.305Z,57.73
2019-02-19T08:05:56.625Z,60.35
2019-02-19T08:07:00.762Z,58.70
2019-02-19T08:08:04.928Z,59.40
2019-02-19T08:09:12.017Z,58.42
2019-02-19T08:10:16.219Z,54.88
2019-02-19T08:11:21.369Z,57.67
2019-02-19T08:12:31.501Z,64.58
2019-02-19T08:13:34.270Z,56.68
2019-02-19T08:14:39.461Z,59.60
2019-02-19T08:15:45.137Z,61.42
2019-02-19T08:16:49.564Z,59.55
2019-02-19T08:17:57.475Z,56.77
2019-02-19T08:19:00.645Z,64.07
2019-02-19T08:20:13.451Z,64.80
2019-02-19T08:21:11.865Z,56.95
2019-02-19T08:22:16.492Z,65.50
2019-02-19T08:23:20.578Z,55.60
2019-02-19T08:24:26.307Z,57.20
2019-02-19T08:25:30.792Z,55.85
2019-02-19T08:26:34.998Z,56.65
2019-02-19T08:27:38.987Z,57.53
2019-02-19T08:28:45.891Z,70.12
2019-02-19T08:29:50.033Z,76.35
2019-02-19T08:31:06.624Z,66.77
2019-02-19T08:32:01.653Z,61.77
2019-02-19T08:33:08.689Z,64.25
2019-02-19T08:34:19.333Z,54.00
2019-02-19T08:35:23.975Z,65.03
2019-02-19T08:36:29.827Z,55.28
2019-02-19T08:37:54.719Z,53.25
2019-02-19T08:39:09.102Z,53.05
2019-02-19T08:40:24.041Z,58.52
2019-02-19T08:41:43.767Z,53.38
2019-02-19T08:43:07.572Z,49.20
2019-02-19T08:44:26.998Z,49.63
2019-02-19T08:45:42.986Z,49.95
2019-02-19T08:46:37.355Z,49.03
2019-02-19T08:47:44.453Z,47.98
2019-02-19T08:48:59.315Z,47.38
2019-02-19T08:50:07.075Z,48.55
2019-02-19T08:51:14.642Z,52.10
2019-02-19T08:52:32.507Z,43.75
2019-02-19T08:53:44.562Z,43.63
2019-02-19T08:56:16.331Z,41.08
2019-02-19T08:58:48.131Z,39.60
2019-02-19T09:00:02.280Z,39.83
2019-02-19T09:01:05.967Z,45.92
2019-02-19T09:03:49.495Z,41.63
2019-02-19T09:06:25.341Z,41.20
2019-02-19T09:07:38.259Z,43.63
2019-02-19T09:08:41.841Z,42.65
2019-02-19T09:09:50.243Z,44.25
2019-02-19T09:12:07.563Z,38.50
2019-02-19T09:12:11.670Z,41.77
2019-02-19T09:13:16.491Z,39.75
2019-02-19T09:14:21.932Z,43.58
2019-02-19T09:14:33.460Z,39.05
2019-02-19T09:15:39.913Z,41.73
2019-02-19T09:16:42.283Z,36.05
2019-02-19T09:17:51.976Z,34.85
2019-02-19T09:19:17.879Z,35.52
2019-02-19T09:20:12.394Z,37.55
2019-02-19T09:21:18.283Z,38.13
2019-02-19T09:22:30.595Z,38.95
2019-02-19T09:23:32.214Z,35.45
2019-02-19T09:24:38.157Z,38.40
2019-02-19T09:25:45.709Z,35.75
2019-02-19T09:26:54.153Z,36.28
2019-02-19T09:28:04.716Z,35.68
2019-02-19T09:29:15.259Z,36.68
2019-02-19T09:30:13.553Z,34.65
2019-02-19T09:31:26.944Z,37.17
2019-02-19T09:32:39.112Z,38.15
2019-02-19T09:33:44.867Z,35.80
2019-02-19T09:34:58.659Z,37.65
2019-02-19T09:35:59.945Z,35.00
2019-02-19T09:37:07.652Z,35.48
2019-02-19T09:39:09.598Z,31.62
2019-02-19T09:39:33.457Z,36.80
2019-02-19T09:40:42.981Z,34.08
2019-02-19T09:41:47.196Z,36.35
2019-02-19T09:42:54.977Z,36.45
2019-02-19T09:44:02.359Z,31.68
2019-02-19T09:45:09.721Z,35.85
2019-02-19T09:46:19.583Z,32.70
2019-02-19T09:47:35.405Z,30.70
2019-02-19T09:48:46.471Z,34.23
2019-02-19T09:50:06.663Z,30.97
2019-02-19T09:51:14.907Z,33.35
2019-02-19T09:52:24.342Z,34.05
2019-02-19T09:53:40.810Z,32.53
2019-02-19T09:54:42.040Z,30.85
2019-02-19T09:55:47.983Z,32.67
2019-02-19T09:56:59.016Z,31.17
2019-02-19T09:57:59.785Z,30.75
2019-02-19T10:00:47.155Z,32.85
2019-02-19T10:00:49.689Z,31.82
2019-02-19T10:01:37.888Z,33.00
2019-02-19T10:02:56.437Z,34.45
2019-02-19T10:04:37.994Z,31.10
2019-02-19T10:05:21.801Z,30.65
2019-02-19T10:07:01.561Z,33.08
2019-02-19T10:08:03.193Z,29.65
2019-02-19T10:08:58.377Z,33.85
2019-02-19T10:10:11.291Z,31.35
2019-02-19T10:11:24.725Z,31.90
2019-02-19T10:12:27.017Z,31.85
2019-02-19T10:13:51.252Z,34.08
2019-02-19T10:17:47.029Z,31.25
2019-02-19T10:18:57.622Z,32.67
2019-02-19T10:20:03.559Z,29.85
2019-02-19T10:21:09.264Z,27.82
2019-02-19T10:22:32.353Z,28.80
2019-02-19T10:23:35.425Z,31.65
2019-02-19T10:24:42.964Z,31.05
2019-02-19T10:25:51.586Z,29.60
2019-02-19T10:27:00.499Z,33.30
2019-02-19T10:28:06.187Z,32.78
2019-02-19T10:29:26.161Z,30.70
2019-02-19T10:30:27.606Z,28.30
2019-02-19T10:31:42.825Z,30.57
2019-02-19T10:32:52.283Z,28.05
2019-02-19T10:34:01.101Z,30.43
2019-02-19T10:35:14.537Z,32.88
2019-02-19T10:36:18.316Z,30.08
2019-02-19T10:37:25.707Z,30.82
2019-02-19T10:38:37.311Z,27.95
2019-02-19T10:44:53.152Z,29.52
2019-02-19T10:45:07.315Z,30.75
2019-02-19T10:47:31.123Z,26.73
2019-02-19T10:48:39.731Z,28.62
2019-02-19T10:49:48.753Z,27.37
2019-02-19T10:51:22.106Z,26.82
2019-02-19T10:52:10.344Z,27.87
2019-02-19T10:53:18.091Z,25.27
2019-02-19T10:54:28.708Z,25.92
2019-02-19T10:56:45.458Z,26.85
2019-02-19T10:57:54.110Z,27.13
2019-02-19T10:59:03.984Z,25.30
2019-02-19T11:00:12.047Z,25.30
2019-02-19T11:01:26.287Z,24.47
2019-02-19T11:05:48.432Z,27.00
2019-02-19T11:07:13.651Z,25.95
2019-02-19T11:08:22.088Z,25.62
2019-02-19T11:11:26.792Z,26.33
2019-02-19T11:11:51.657Z,24.80
2019-02-19T11:13:08.587Z,24.80
2019-02-19T11:14:36.010Z,24.25
2019-02-19T11:15:45.256Z,23.00
2019-02-19T11:20:19.988Z,29.27
2019-02-19T11:25:00.298Z,25.43
2019-02-19T11:25:42.820Z,26.40
2019-02-19T11:27:45.423Z,25.60
2019-02-19T11:29:19.139Z,25.00
2019-02-19T11:30:34.783Z,23.83
2019-02-19T11:31:25.902Z,23.55
2019-02-19T11:37:28.472Z,24.72
2019-02-19T11:43:16.161Z,25.85
2019-02-19T11:45:56.942Z,26.35
2019-02-19T11:47:05.900Z,25.17
2019-02-19T11:48:23.520Z,24.07
2019-02-19T11:49:59.202Z,23.85
2019-02-19T11:50:42.211Z,26.50
2019-02-19T11:51:48.033Z,24.23
2019-02-19T11:52:54.002Z,25.43
2019-02-19T11:53:58.562Z,25.55
2019-02-19T11:55:31.765Z,28.23
2019-02-19T11:56:20.455Z,25.35
2019-02-19T11:57:22.187Z,26.20
2019-02-19T11:58:33.842Z,26.15
2019-02-19T11:59:40.598Z,26.75
2019-02-19T12:00:49.007Z,25.35
2019-02-19T12:01:57.560Z,24.15
2019-02-19T12:03:05.906Z,27.77
2019-02-19T12:04:10.925Z,28.70
2019-02-19T12:05:15.144Z,25.50
2019-02-19T12:06:20.589Z,25.90
2019-02-19T12:07:35.441Z,23.65
2019-02-19T12:08:46.720Z,24.40
2019-02-19T12:09:53.688Z,22.32
2019-02-19T12:11:07.157Z,24.43
2019-02-19T12:12:13.080Z,23.75
2019-02-19T12:13:17.280Z,27.17
2019-02-19T12:14:24.162Z,25.08
2019-02-19T12:15:35.260Z,24.75
2019-02-19T12:17:48.618Z,22.27
2019-02-19T12:18:52.812Z,21.37
2019-02-19T12:19:58.352Z,21.55
2019-02-19T12:21:03.556Z,25.70
2019-02-19T12:22:16.275Z,25.85
2019-02-19T12:23:20.403Z,23.30
2019-02-19T12:24:25.598Z,22.95
2019-02-19T12:25:29.697Z,25.10
2019-02-19T12:26:34.846Z,23.85
2019-02-19T12:27:39.268Z,23.18
2019-02-19T12:28:51.047Z,23.47
2019-02-19T12:30:01.461Z,23.45
2019-02-19T12:31:09.806Z,22.52
2019-02-19T12:32:12.645Z,22.62
2019-02-19T12:33:21.204Z,24.18
2019-02-19T12:34:25.806Z,23.20
2019-02-19T12:35:37.489Z,22.58
2019-02-19T12:36:44.671Z,22.73
2019-02-19T12:37:50.508Z,24.50
2019-02-19T12:38:57.803Z,24.32
2019-02-19T12:40:14.226Z,24.52
2019-02-19T12:41:31.478Z,23.87
2019-02-19T12:42:26.364Z,23.67
2019-02-19T12:43:30.627Z,24.65
2019-02-19T12:44:34.736Z,25.65
2019-02-19T12:45:41.455Z,24.52
2019-02-19T12:46:47.745Z,24.32
2019-02-19T12:47:54.274Z,25.95
2019-02-19T12:48:57.662Z,24.32
2019-02-19T12:50:02.550Z,24.82
2019-02-19T12:51:07.376Z,23.32
2019-02-19T12:52:16.186Z,24.20
2019-02-19T12:53:22.100Z,23.50
2019-02-19T12:54:27.724Z,23.57
2019-02-19T12:55:33.058Z,25.23
2019-02-19T12:56:37.920Z,24.50
2019-02-19T12:57:45.438Z,24.87
2019-02-19T12:58:51.859Z,24.30
2019-02-19T12:59:57.578Z,24.52
2019-02-19T13:01:04.421Z,24.25
2019-02-19T13:02:10.910Z,23.67
2019-02-19T13:03:15.091Z,26.20
2019-02-19T13:04:21.721Z,27.55
2019-02-19T13:05:25.062Z,24.75
2019-02-19T13:06:30.811Z,26.02
2019-02-19T13:07:37.899Z,23.92
2019-02-19T13:08:45.651Z,24.47
2019-02-19T13:09:52.040Z,25.50
2019-02-19T13:10:57.447Z,25.97
2019-02-19T13:12:04.315Z,26.68
2019-02-19T13:13:13.292Z,24.55
2019-02-19T13:14:25.377Z,25.97
2019-02-19T13:15:27.456Z,25.80
2019-02-19T13:16:33.157Z,23.27
2019-02-19T13:17:38.627Z,23.85
2019-02-19T13:18:43.218Z,23.67
2019-02-19T13:19:50.188Z,24.65
2019-02-19T13:20:59.666Z,24.82
2019-02-19T13:22:03.808Z,24.33
2019-02-19T13:23:12.866Z,24.70
2019-02-19T13:24:15.509Z,23.70
2019-02-19T13:25:20.094Z,23.62
2019-02-19T13:26:27.306Z,23.05
2019-02-19T13:27:41.969Z,21.52
2019-02-19T13:28:48.642Z,24.80
2019-02-19T13:29:59.958Z,23.47
2019-02-19T13:30:59.520Z,24.35
2019-02-19T13:32:08.827Z,23.83
2019-02-19T13:33:16.998Z,22.67
2019-02-19T13:34:23.800Z,23.55
2019-02-19T13:35:29.874Z,24.30
2019-02-19T13:36:37.358Z,24.32
2019-02-19T13:37:47.082Z,24.35
2019-02-19T13:38:54.328Z,22.80
2019-02-19T13:40:03.263Z,23.55
2019-02-19T13:41:10.273Z,23.42
2019-02-19T13:42:18.319Z,22.58
2019-02-19T13:43:31.993Z,24.82
2019-02-19T13:44:47.830Z,23.52
2019-02-19T13:46:01.579Z,25.17
2019-02-19T13:47:02.109Z,24.57
2019-02-19T13:48:07.735Z,24.60
2019-02-19T13:49:16.098Z,22.67
2019-02-19T13:50:25.152Z,23.00
2019-02-19T13:51:46.660Z,23.22
2019-02-19T13:52:51.310Z,23.42
2019-02-19T13:54:11.401Z,25.00
2019-02-19T13:55:16.224Z,22.73
2019-02-19T13:56:25.168Z,25.05
2019-02-19T13:57:51.902Z,22.22
2019-02-19T13:59:47.135Z,23.67
2019-02-19T14:00:04.148Z,25.08
2019-02-19T14:03:07.029Z,23.70
2019-02-19T14:03:31.795Z,23.32
2019-02-19T14:03:57.668Z,24.77
2019-02-19T14:05:09.486Z,24.45
2019-02-19T14:08:17.402Z,24.20
2019-02-19T14:10:41.355Z,21.87
2019-02-19T14:13:12.612Z,22.25
2019-02-19T14:13:34.794Z,21.73
2019-02-19T14:14:58.662Z,21.00
2019-02-19T14:17:46.467Z,22.20
2019-02-19T14:19:20.991Z,22.27
2019-02-19T14:20:50.782Z,22.05
2019-02-19T14:22:29.914Z,20.05
2019-02-19T14:25:46.974Z,21.42
2019-02-19T14:27:26.036Z,20.65
2019-02-19T14:28:03.066Z,22.17
2019-02-19T14:32:32.206Z,20.55
2019-02-19T14:32:50.913Z,23.05
2019-02-19T14:35:49.532Z,20.90
2019-02-19T14:37:07.483Z,20.05
2019-02-19T14:39:44.716Z,21.10
2019-02-19T14:42:59.198Z,22.80
2019-02-19T14:52:40.803Z,20.72
2019-02-19T14:57:15.495Z,25.25
2019-02-19T15:00:44.455Z,24.30
2019-02-19T15:01:43.991Z,23.83
2019-02-19T15:03:08.981Z,25.17
2019-02-19T15:04:23.210Z,25.25
2019-02-19T15:05:42.650Z,24.57
2019-02-19T15:07:23.699Z,23.83
2019-02-19T15:09:50.120Z,24.27
2019-02-19T15:12:30.350Z,24.70
2019-02-19T15:17:18.475Z,23.83
2019-02-19T15:18:41.349Z,27.15
2019-02-19T15:20:04.981Z,24.50
2019-02-19T15:21:16.483Z,27.37
2019-02-19T15:22:28.374Z,26.90
2019-02-19T15:23:43.305Z,26.55
2019-02-19T15:25:12.441Z,26.95
2019-02-19T15:26:18.053Z,26.90
2019-02-19T15:27:23.919Z,26.57
2019-02-19T15:28:38.487Z,26.10
2019-02-19T15:29:45.839Z,26.45
2019-02-19T15:31:12.884Z,28.25
2019-02-19T15:32:35.099Z,28.62
2019-02-19T15:35:50.063Z,26.37
2019-02-19T15:37:24.964Z,28.92
2019-02-19T15:38:28.398Z,29.23
2019-02-19T15:41:24.016Z,26.10
2019-02-19T15:42:45.826Z,28.87
2019-02-19T15:43:55.559Z,28.23
2019-02-19T15:45:03.563Z,25.55
2019-02-19T15:46:21.365Z,30.15
2019-02-19T15:47:27.109Z,27.90
2019-02-19T15:48:49.945Z,26.93